PGUM/GUM METAR and TAF weather

Enter ICAO airport designator
Station Type Date Time Source
PGUM METAR 2019/04/18 21:54 UTC NOAA

PGUM 182154Z 09007KT 10SM FEW019 27/22 A2995 RMK AO2 SLP132 T02720222


Station Type Date Time Source
PGUM Decoded METAR 2019/04/18 21:54 UTC NOAA

Agana, Guam International Airport, GU, United States (PGUM) 13-29N 144-48E
Apr 18, 2019 - 05:54 PM EDT / 2019.04.18 2154 UTC
Wind: from the E (090 degrees) at 8 MPH (7 KT):0
Visibility: 10 mile(s):0
Sky conditions: mostly clear
Temperature: 81.0 F (27.2 C)
Dew Point: 72.0 F (22.2 C)
Relative Humidity: 74%
Pressure (altimeter): 29.95 in. Hg (1014 hPa)
ob: PGUM 182154Z 09007KT 10SM FEW019 27/22 A2995 RMK AO2 SLP132 T02720222
cycle: 22

Station Type Date Time Source
PGUM TAF 2019/04/18 18:48 UTC NOAA

TAF PGUM 181740Z 1818/1924 08010KT P6SM VCSH FEW021 SCT030

Example: see airport list